Time;durP1;ratioP1;P1;durP2;ratioP2;P2;SDS_P1;SDS_P2;PMS_P1;PMS_P2;Temp;Humidity;BMP_temperature;BMP_pressure;BME280_temperature;BME280_humidity;BME280_pressure;Samples;Min_cycle;Max_cycle;Signal;HPM_P1;HPM_P2
2022/04/17 00:00:21;;;;;;;7.78;6.07;;;;;;;-146.64;75.65;39309.13;5017525;28;20117;-77
2022/04/17 00:02:46;;;;;;;8.70;5.82;;;;;;;-146.64;77.02;39313.22;5008256;28;20489;-78
2022/04/17 00:05:13;;;;;;;8.65;5.47;;;;;;;-146.64;77.41;39323.47;5020480;28;20039;-78
2022/04/17 00:07:38;;;;;;;8.43;5.40;;;;;;;-146.64;77.61;39300.94;5007686;28;20036;-78
2022/04/17 00:10:09;;;;;;;11.68;6.60;;;;;;;-146.64;78.21;39313.22;5011860;28;20041;-77
2022/04/17 00:12:39;;;;;;;9.95;6.40;;;;;;;-146.64;79.03;39362.34;5023859;28;20033;-77
2022/04/17 00:15:05;;;;;;;9.38;6.07;;;;;;;-146.64;79.52;39325.50;5005529;28;20042;-77
2022/04/17 00:17:30;;;;;;;12.20;6.10;;;;;;;-146.64;79.80;39374.63;5014234;28;20396;-77
2022/04/17 00:19:57;;;;;;;11.77;6.57;;;;;;;-146.64;81.12;39370.53;5008523;28;20072;-76
2022/04/17 00:22:25;;;;;;;7.78;5.70;;;;;;;-146.64;80.77;39333.69;5039434;28;20039;-76
2022/04/17 00:24:51;;;;;;;9.57;6.43;;;;;;;-146.64;81.93;39382.81;5012896;28;20072;-78
2022/04/17 00:27:16;;;;;;;11.32;6.95;;;;;;;-146.64;83.14;39374.63;5030853;28;20026;-79
2022/04/17 00:29:44;;;;;;;12.27;6.88;;;;;;;-146.64;83.82;39395.09;5037581;28;20033;-78
2022/04/17 00:32:10;;;;;;;10.50;6.20;;;;;;;-146.64;84.65;39444.22;5003141;28;20033;-79
2022/04/17 00:34:36;;;;;;;9.73;7.03;;;;;;;-146.64;84.47;39436.03;5020739;28;20049;-77
2022/04/17 00:37:02;;;;;;;10.60;6.88;;;;;;;-146.64;85.16;39407.38;5008495;28;20036;-77
2022/04/17 00:39:28;;;;;;;9.37;6.30;;;;;;;-146.64;85.19;39411.47;4988265;28;20101;-79
2022/04/17 00:41:54;;;;;;;10.20;6.88;;;;;;;-146.64;85.81;39438.06;5017366;28;20041;-78
2022/04/17 00:44:19;;;;;;;8.88;6.07;;;;;;;-146.64;85.96;39429.88;5008633;28;20448;-78
2022/04/17 00:46:44;;;;;;;14.75;6.75;;;;;;;-146.64;86.42;39427.84;5009971;28;20038;-79
2022/04/17 00:49:12;;;;;;;10.23;7.57;;;;;;;-146.64;85.42;39489.25;5026852;28;20030;-79
2022/04/17 00:51:37;;;;;;;;;;;;;;;-146.64;86.42;39476.97;5025909;28;20069;-78
2022/04/17 00:54:04;;;;;;;10.85;7.15;;;;;;;-146.64;86.71;39427.84;5003696;28;19917;-78
2022/04/17 00:56:31;;;;;;;14.07;7.00;;;;;;;-146.64;87.18;39456.50;4986115;28;20037;-78
2022/04/17 00:58:56;;;;;;;;;;;;;;;-146.64;86.98;39440.13;5013885;28;20085;-78
2022/04/17 01:01:22;;;;;;;12.15;6.80;;;;;;;-146.64;86.23;39452.41;5012447;28;19952;-78
2022/04/17 01:03:49;;;;;;;11.65;7.05;;;;;;;-146.64;86.26;39456.50;5023440;28;20491;-77
2022/04/17 01:06:14;;;;;;;15.02;8.00;;;;;;;-146.64;86.73;39491.28;5006443;28;20048;-79
2022/04/17 01:08:41;;;;;;;11.10;7.07;;;;;;;-146.64;86.78;39476.97;4999504;28;20030;-79
2022/04/17 01:11:10;;;;;;;10.05;6.95;;;;;;;-146.64;86.87;39464.69;5017734;28;20061;-78
2022/04/17 01:13:38;;;;;;;16.27;7.25;;;;;;;-146.64;85.83;39446.25;5014525;28;20036;-77
2022/04/17 01:16:05;;;;;;;11.45;7.22;;;;;;;-146.64;85.61;39407.38;5004025;28;20080;-78
2022/04/17 01:19:04;;;;;;;18.10;8.13;;;;;;;-146.64;85.12;39460.59;4998902;28;20030;-78
2022/04/17 01:21:34;;;;;;;12.45;8.07;;;;;;;-146.64;84.72;39423.75;5016075;28;20045;-79
2022/04/17 01:27:01;;;;;;;13.93;7.88;;;;;;;-146.64;83.88;39444.22;5021350;28;20109;-79
2022/04/17 01:29:39;;;;;;;13.57;8.00;;;;;;;-146.64;84.70;39436.03;5007243;28;21038;-78
2022/04/17 01:32:07;;;;;;;12.07;7.53;;;;;;;-146.64;85.18;39444.22;5005692;28;20029;-78
2022/04/17 01:34:32;;;;;;;13.65;8.13;;;;;;;-146.64;86.20;39452.41;5022992;28;20061;-77
2022/04/17 01:36:59;;;;;;;14.02;7.93;;;;;;;-146.64;85.29;39411.47;5004300;28;20071;-77
2022/04/17 01:39:24;;;;;;;14.93;8.13;;;;;;;-146.64;85.42;39438.06;4991527;28;20572;-79
2022/04/17 01:41:51;;;;;;;12.18;7.68;;;;;;;-146.64;85.46;39456.50;5025303;28;20073;-77
2022/04/17 01:44:17;;;;;;;11.88;8.07;;;;;;;-146.64;84.78;39489.25;5000083;28;20026;-78
2022/04/17 01:46:43;;;;;;;10.57;7.40;;;;;;;-146.64;85.15;39427.84;5017844;28;20029;-78
2022/04/17 01:49:09;;;;;;;12.93;7.97;;;;;;;-146.64;85.32;39431.94;5025227;28;20411;-79
2022/04/17 01:51:38;;;;;;;16.80;7.47;;;;;;;-146.64;85.44;39362.34;5021086;28;20068;-79
2022/04/17 01:54:11;;;;;;;17.17;7.75;;;;;;;-146.64;84.59;39446.25;5016519;28;20040;-79
2022/04/17 01:56:39;;;;;;;14.77;8.00;;;;;;;-146.64;84.87;39456.50;4993424;28;20401;-78
2022/04/17 01:59:06;;;;;;;12.00;7.72;;;;;;;-146.64;83.80;39403.28;5014406;28;20026;-79
2022/04/17 02:01:34;;;;;;;15.43;8.45;;;;;;;-146.64;82.79;39423.75;5022345;28;20033;-79
2022/04/17 02:04:01;;;;;;;12.38;8.05;;;;;;;-146.64;83.08;39407.38;5011280;28;20049;-79
2022/04/17 02:06:27;;;;;;;18.15;8.23;;;;;;;-146.64;82.75;39456.50;4997835;28;20030;-79
2022/04/17 02:08:54;;;;;;;11.75;7.97;;;;;;;-146.64;83.20;39464.69;5005488;28;20030;-79
2022/04/17 02:11:20;;;;;;;15.07;8.02;;;;;;;-146.64;83.20;39423.75;5023629;28;20030;-78
2022/04/17 02:13:46;;;;;;;11.35;7.57;;;;;;;-146.64;82.18;39431.94;5025057;28;20041;-79
2022/04/17 02:16:13;;;;;;;13.20;8.88;;;;;;;-146.64;82.76;39403.28;5017142;28;20033;-79
2022/04/17 02:18:38;;;;;;;13.48;8.15;;;;;;;-146.64;82.80;39433.97;5007111;28;20036;-78
2022/04/17 02:21:04;;;;;;;15.60;7.50;;;;;;;-146.64;82.92;39442.16;5026717;28;20376;-78
2022/04/17 02:23:30;;;;;;;15.57;8.43;;;;;;;-146.64;82.52;39454.44;5034505;28;20372;-79
2022/04/17 02:25:56;;;;;;;12.50;8.38;;;;;;;-146.64;83.39;39444.22;5018658;28;20030;-78
2022/04/17 02:28:21;;;;;;;13.85;8.20;;;;;;;-146.64;83.66;39433.97;5002567;28;20096;-78
2022/04/17 02:30:46;;;;;;;18.45;8.40;;;;;;;-146.64;83.35;39436.03;5009562;28;20056;-77
2022/04/17 02:33:12;;;;;;;12.77;8.05;;;;;;;-146.64;84.25;39436.03;4995662;28;20086;-78
2022/04/17 02:35:37;;;;;;;13.63;8.68;;;;;;;-146.64;84.50;39438.06;5011803;28;20026;-78
2022/04/17 02:38:03;;;;;;;13.40;8.20;;;;;;;-146.64;85.36;39460.59;4984777;28;20029;-78
2022/04/17 02:40:31;;;;;;;12.52;7.80;;;;;;;-146.64;86.02;39466.72;5015011;28;20031;-78
2022/04/17 02:42:56;;;;;;;12.07;8.32;;;;;;;-146.64;86.60;39472.88;4990298;28;20028;-77
2022/04/17 02:45:21;;;;;;;11.00;7.95;;;;;;;-146.64;86.92;39476.97;5008662;28;20137;-79
2022/04/17 02:47:48;;;;;;;16.42;8.60;;;;;;;-146.64;87.50;39513.81;5012830;28;20136;-78
2022/04/17 02:50:15;;;;;;;14.30;8.38;;;;;;;-146.64;86.80;39456.50;4987800;28;20033;-78
2022/04/17 02:52:41;;;;;;;14.13;8.10;;;;;;;-146.64;87.59;39522.00;5021135;28;20467;-78
2022/04/17 02:55:07;;;;;;;13.07;9.32;;;;;;;-146.64;88.32;39548.59;4999832;28;20057;-79
2022/04/17 02:57:34;;;;;;;15.60;8.95;;;;;;;-146.64;88.16;39522.00;4985467;28;20436;-78
2022/04/17 02:59:59;;;;;;;16.30;8.52;;;;;;;-146.64;88.40;39460.59;5031516;28;20033;-78
2022/04/17 03:07:53;;;;;;;12.00;9.00;;;;;;;-146.64;89.42;39536.31;5012645;28;20036;-79
2022/04/17 03:10:19;;;;;;;14.45;8.68;;;;;;;-146.64;89.21;39526.09;5002011;28;20030;-79
2022/04/17 03:12:44;;;;;;;14.13;8.63;;;;;;;-146.64;89.19;39522.00;5014346;28;20041;-78
2022/04/17 03:15:10;;;;;;;14.23;8.13;;;;;;;-146.64;90.14;39538.34;5029597;28;20052;-79
2022/04/17 03:17:37;;;;;;;13.30;8.98;;;;;;;-146.64;89.37;39546.53;5025706;28;20026;-78
2022/04/17 03:20:03;;;;;;;14.30;8.48;;;;;;;-146.64;89.74;39542.44;5012613;28;20038;-79
2022/04/17 03:22:34;;;;;;;15.95;8.40;;;;;;;-146.64;90.19;39505.63;5017519;28;20042;-79
2022/04/17 03:25:00;;;;;;;14.00;8.07;;;;;;;-146.64;89.18;39542.44;5013880;28;20038;-78
2022/04/17 03:27:28;;;;;;;13.68;8.82;;;;;;;-146.64;89.66;39517.91;5004994;28;20555;-79
2022/04/17 03:29:54;;;;;;;12.30;8.13;;;;;;;-146.64;88.60;39474.91;5002245;28;20084;-78
2022/04/17 03:32:20;;;;;;;18.33;7.97;;;;;;;-146.64;89.05;39524.03;4995256;28;20132;-79
2022/04/17 03:34:47;;;;;;;12.15;7.50;;;;;;;-146.64;89.24;39534.25;5015267;28;20789;-80
2022/04/17 03:37:14;;;;;;;12.82;8.77;;;;;;;-146.64;89.13;39542.44;5004425;28;20030;-80
2022/04/17 03:39:39;;;;;;;11.10;8.27;;;;;;;-146.64;89.00;39489.25;5012121;28;20090;-79
2022/04/17 03:42:06;;;;;;;14.02;8.52;;;;;;;-146.64;89.77;39470.81;5025886;28;20128;-79
2022/04/17 03:44:33;;;;;;;17.00;8.82;;;;;;;-146.64;89.10;39472.88;4990026;28;20108;-80
2022/04/17 03:46:58;;;;;;;15.63;9.02;;;;;;;-146.64;89.94;39540.41;5016845;28;20477;-78
2022/04/17 03:49:25;;;;;;;15.35;8.65;;;;;;;-146.64;90.27;39564.97;5018875;28;20025;-78
2022/04/17 03:51:51;;;;;;;;;;;;;;;-146.64;89.87;39544.50;5005311;28;20056;-80
2022/04/17 03:54:18;;;;;;;14.32;8.75;;;;;;;-146.64;90.63;39542.44;5004872;28;19917;-79
2022/04/17 03:56:46;;;;;;;16.38;9.05;;;;;;;-146.64;91.45;39567.00;5004905;28;20030;-79
2022/04/17 03:59:11;;;;;;;11.02;7.63;;;;;;;-146.64;92.16;39562.91;5024059;28;20033;-80
2022/04/17 04:01:37;;;;;;;11.98;8.60;;;;;;;-146.64;93.94;39640.69;5021814;28;20032;-80
2022/04/17 04:04:02;;;;;;;13.43;9.00;;;;;;;-146.64;94.29;39593.63;5035753;28;20033;-79
2022/04/17 04:06:28;;;;;;;14.70;8.90;;;;;;;-146.64;94.13;39622.28;5006030;28;20060;-80
2022/04/17 04:08:53;;;;;;;15.07;8.27;;;;;;;-146.64;94.91;39628.41;4996668;28;20129;-77
2022/04/17 04:11:18;;;;;;;11.63;8.38;;;;;;;-146.64;93.85;39603.84;4995430;28;20054;-77
2022/04/17 04:13:44;;;;;;;18.10;8.98;;;;;;;-146.64;94.05;39550.63;5004541;28;20056;-78
2022/04/17 04:16:10;;;;;;;12.63;8.52;;;;;;;-146.64;94.63;39648.88;4998476;28;20065;-79
2022/04/17 04:18:35;;;;;;;13.52;8.68;;;;;;;-146.64;95.67;39642.75;4987704;28;20129;-78
2022/04/17 04:21:03;;;;;;;14.05;8.75;;;;;;;-146.64;96.12;39655.03;4993025;28;20075;-77
2022/04/17 04:23:35;;;;;;;13.20;9.25;;;;;;;-146.64;95.98;39628.41;5030474;28;20029;-78
2022/04/17 04:26:01;;;;;;;12.90;8.55;;;;;;;-146.64;95.16;39632.50;5004938;28;20029;-77
2022/04/17 04:28:33;;;;;;;14.13;8.43;;;;;;;-146.64;95.57;39661.16;4993845;28;20026;-78
2022/04/17 04:31:18;;;;;;;13.00;8.45;;;;;;;-146.64;97.11;39681.63;5000936;28;20040;-78
2022/04/17 04:33:44;;;;;;;14.88;8.57;;;;;;;-146.64;96.13;39616.13;5021776;28;20508;-79
2022/04/17 04:36:11;;;;;;;12.77;8.63;;;;;;;-146.64;96.96;39644.78;5025083;28;20033;-79
2022/04/17 04:38:37;;;;;;;12.95;8.68;;;;;;;-146.64;96.77;39687.78;5009920;28;20485;-78
2022/04/17 04:41:03;;;;;;;17.42;9.05;;;;;;;-146.64;95.82;39659.13;4984702;28;20038;-78
2022/04/17 04:43:29;;;;;;;12.07;8.17;;;;;;;-146.64;95.71;39648.88;5011177;28;20048;-79
2022/04/17 04:46:07;;;;;;;14.27;8.65;;;;;;;-146.64;95.93;39702.09;4987279;28;20405;-77
2022/04/17 04:51:21;;;;;;;;;;;;;;;-146.64;96.76;39642.75;5006512;28;20566;-78
2022/04/17 04:53:47;;;;;;;13.65;8.35;;;;;;;-146.64;96.95;39632.50;5021493;28;19980;-78
2022/04/17 04:56:13;;;;;;;13.98;9.30;;;;;;;-146.64;97.53;39691.88;5000213;28;20481;-79
2022/04/17 04:58:40;;;;;;;13.07;7.55;;;;;;;-146.64;98.52;39685.72;5024198;28;20017;-77
2022/04/17 05:01:05;;;;;;;13.63;8.07;;;;;;;-146.64;97.34;39669.34;5026675;28;20068;-79
2022/04/17 05:03:31;;;;;;;15.93;8.20;;;;;;;-146.64;96.98;39626.38;5014125;28;20026;-79
2022/04/17 05:05:56;;;;;;;12.88;8.05;;;;;;;-146.64;96.33;39628.41;5008576;28;20022;-80
2022/04/17 05:08:22;;;;;;;13.55;8.35;;;;;;;-146.64;95.57;39595.66;5008178;28;20061;-80
2022/04/17 05:10:48;;;;;;;9.18;7.22;;;;;;;-146.64;95.78;39601.81;5015133;28;20030;-79
2022/04/17 05:13:13;;;;;;;13.55;8.35;;;;;;;-146.64;96.28;39626.38;5017763;28;20025;-79
2022/04/17 05:15:39;;;;;;;12.10;7.97;;;;;;;-146.64;96.83;39632.50;5007224;28;20029;-79
2022/04/17 05:18:04;;;;;;;12.93;8.60;;;;;;;-146.64;95.38;39612.03;5015723;28;20038;-79
2022/04/17 05:20:34;;;;;;;13.70;6.82;;;;;;;-146.64;95.56;39489.25;5014352;28;20034;-78
2022/04/17 05:23:18;;;;;;;11.25;8.07;;;;;;;-146.64;94.26;39562.91;5023221;28;20041;-78
2022/04/17 05:25:47;;;;;;;13.35;8.25;;;;;;;-146.64;93.96;39587.47;5001935;28;20226;-79
2022/04/17 05:28:15;;;;;;;14.43;7.75;;;;;;;-146.64;94.08;39575.19;5018822;28;20089;-80
2022/04/17 05:30:42;;;;;;;15.90;7.85;;;;;;;-146.64;93.81;39567.00;4996667;28;20026;-78
2022/04/17 05:33:08;;;;;;;15.68;7.32;;;;;;;-146.64;92.84;39550.63;5011256;28;20041;-79
2022/04/17 05:35:33;;;;;;;11.55;7.30;;;;;;;-146.64;93.05;39554.72;5003612;28;20041;-78
2022/04/17 05:37:58;;;;;;;14.15;8.18;;;;;;;-146.64;92.63;39550.63;5022159;28;20018;-77
2022/04/17 05:40:24;;;;;;;12.35;7.85;;;;;;;-146.64;92.60;39509.72;4992940;28;20037;-76
2022/04/17 05:42:49;;;;;;;11.25;7.30;;;;;;;-146.64;92.89;39511.75;4984787;28;20476;-77
2022/04/17 05:45:15;;;;;;;15.50;6.80;;;;;;;-146.64;90.66;39491.28;5015660;28;20037;-77
2022/04/17 05:47:40;;;;;;;11.43;7.15;;;;;;;-146.64;90.18;39489.25;5027661;28;20056;-79
2022/04/17 05:50:06;;;;;;;10.00;6.68;;;;;;;-146.64;89.98;39362.34;4985106;28;20053;-79
2022/04/17 05:52:31;;;;;;;8.98;7.28;;;;;;;-146.64;89.26;39419.66;5021394;28;20076;-77
2022/04/17 05:54:57;;;;;;;10.52;6.70;;;;;;;-146.64;89.00;39440.13;4997139;28;20489;-80
2022/04/17 05:57:22;;;;;;;7.93;6.43;;;;;;;-146.64;88.64;39423.75;5024378;28;20045;-79
2022/04/17 05:59:48;;;;;;;16.48;6.97;;;;;;;-146.64;87.47;39397.13;4995035;28;20040;-79
2022/04/17 06:02:15;;;;;;;12.27;7.10;;;;;;;-146.64;88.02;39407.38;5013515;28;20033;-79
2022/04/17 06:04:40;;;;;;;;;;;;;;;-146.64;87.62;39407.38;4997936;28;20392;-79
2022/04/17 06:07:06;;;;;;;14.68;6.35;;;;;;;-146.64;86.35;39366.44;5007829;28;20065;-79
2022/04/17 06:09:31;;;;;;;12.13;6.05;;;;;;;-146.64;86.16;39368.50;5020652;28;20041;-79
2022/04/17 06:11:56;;;;;;;11.30;7.05;;;;;;;-146.64;85.70;39362.34;4991768;28;20042;-79
2022/04/17 06:14:22;;;;;;;12.30;6.93;;;;;;;-146.64;85.86;39333.69;5000960;28;20049;-78
2022/04/17 06:16:47;;;;;;;11.15;6.38;;;;;;;-146.64;84.95;39317.31;4994918;28;20037;-80
2022/04/17 06:19:13;;;;;;;8.32;6.00;;;;;;;-146.64;84.03;39337.78;5006273;28;20029;-79
2022/04/17 06:21:39;;;;;;;11.27;6.38;;;;;;;-146.64;83.75;39325.50;5004942;28;20515;-79
2022/04/17 06:24:05;;;;;;;11.13;6.25;;;;;;;-146.64;83.37;39307.09;4990873;28;20030;-79
2022/04/17 06:26:32;;;;;;;9.93;6.65;;;;;;;-146.64;81.86;39317.31;5009292;28;20030;-79
2022/04/17 06:29:00;;;;;;;14.40;6.00;;;;;;;-146.64;82.73;39300.94;4992381;28;20384;-79
2022/04/17 06:31:25;;;;;;;8.05;5.90;;;;;;;-146.64;81.62;39296.84;5002570;28;20176;-79
2022/04/17 06:33:50;;;;;;;10.68;6.15;;;;;;;-146.64;80.56;39243.66;5008848;28;20104;-80
2022/04/17 06:36:16;;;;;;;13.45;6.85;;;;;;;-146.64;80.35;39243.66;4987323;28;20641;-79
2022/04/17 06:38:41;;;;;;;12.75;6.63;;;;;;;-146.64;78.85;39223.19;4994064;28;20025;-80
2022/04/17 06:41:06;;;;;;;13.73;5.78;;;;;;;-146.64;79.36;39188.38;4999790;28;20422;-81
2022/04/17 06:43:31;;;;;;;11.07;6.30;;;;;;;-146.64;79.52;39227.28;5015811;28;20477;-80
2022/04/17 06:45:57;;;;;;;9.70;6.57;;;;;;;-146.64;78.60;39227.28;5019056;28;20048;-80
2022/04/17 06:48:22;;;;;;;11.75;6.60;;;;;;;-146.64;77.85;39202.72;5006874;28;20053;-80
2022/04/17 06:50:50;;;;;;;11.98;5.70;;;;;;;-146.64;79.26;39223.19;4999017;28;20036;-79
2022/04/17 06:53:16;;;;;;;9.73;6.03;;;;;;;-146.64;77.56;39223.19;5010754;28;20509;-80
2022/04/17 06:55:42;;;;;;;7.00;5.72;;;;;;;-146.64;75.52;39157.69;4994602;28;20105;-80
2022/04/17 06:58:08;;;;;;;13.63;6.78;;;;;;;-146.64;75.82;39163.81;5008635;28;20036;-80
2022/04/17 07:00:34;;;;;;;9.18;5.85;;;;;;;-146.64;75.76;39055.38;5008189;28;20536;-79
2022/04/17 07:02:59;;;;;;;7.93;5.80;;;;;;;-146.64;76.08;39151.56;4985440;28;20052;-80
2022/04/17 07:05:25;;;;;;;10.15;6.30;;;;;;;-146.64;73.79;39131.09;5004521;28;20036;-81
2022/04/17 07:08:01;;;;;;;9.23;5.65;;;;;;;-146.64;72.38;39065.59;4995074;28;20046;-80
2022/04/17 07:10:28;;;;;;;9.32;6.32;;;;;;;-146.64;65.41;38891.66;5002998;28;20037;-79
2022/04/17 07:12:54;;;;;;;9.07;6.00;;;;;;;-146.64;61.20;38813.88;4991296;28;20045;-80
2022/04/17 07:15:19;;;;;;;7.68;5.28;;;;;;;-146.64;56.98;38770.91;5009415;28;20022;-80
2022/04/17 07:17:45;;;;;;;7.20;5.53;;;;;;;-146.64;56.57;38682.94;4992500;28;20115;-79
2022/04/17 07:20:11;;;;;;;11.48;5.28;;;;;;;-146.64;52.58;38707.47;4994863;28;20041;-81
2022/04/17 07:22:37;;;;;;;9.43;5.85;;;;;;;-146.64;52.80;38680.88;5000489;28;20021;-81
2022/04/17 07:25:04;;;;;;;9.45;5.30;;;;;;;-146.64;50.96;38674.75;5004143;28;20109;-81
2022/04/17 07:27:39;;;;;;;;;;;;;;;-146.64;50.11;38695.19;5006543;28;20127;-81
2022/04/17 07:30:16;;;;;;;7.90;5.45;;;;;;;-146.64;50.99;38678.84;4998431;28;20400;-81
2022/04/17 07:32:43;;;;;;;7.57;5.20;;;;;;;-146.64;49.60;38682.94;4993066;28;20117;-81
2022/04/17 07:35:09;;;;;;;10.20;5.10;;;;;;;-146.64;51.69;38746.38;5011136;28;20030;-80
2022/04/17 07:37:35;;;;;;;5.97;5.18;;;;;;;-146.64;50.85;38764.78;4994352;28;20025;-81
2022/04/17 07:40:13;;;;;;;7.95;5.13;;;;;;;-146.64;50.00;38676.78;4989104;28;20106;-81
2022/04/17 07:42:38;;;;;;;7.40;5.57;;;;;;;-146.64;51.15;38768.88;5011844;28;20473;-80
2022/04/17 07:45:04;;;;;;;7.63;5.10;;;;;;;-146.64;50.60;38789.34;4986565;28;20026;-80
2022/04/17 07:47:30;;;;;;;11.20;5.85;;;;;;;-146.64;52.95;38795.47;5011134;28;20037;-80
2022/04/17 07:49:55;;;;;;;8.63;4.55;;;;;;;-146.64;52.50;38803.66;5007246;28;20037;-81
2022/04/17 07:52:21;;;;;;;10.67;5.07;;;;;;;-146.64;51.89;38752.50;5000669;28;20033;-81
2022/04/17 07:54:49;;;;;;;7.25;5.13;;;;;;;-146.64;52.42;38834.34;5008894;28;20033;-81
2022/04/17 07:57:14;;;;;;;8.70;6.25;;;;;;;-146.64;53.39;38809.78;5029828;28;20036;-82
2022/04/17 07:59:41;;;;;;;11.60;5.43;;;;;;;-146.64;53.66;38846.63;5002115;28;20038;-81
2022/04/17 08:02:21;;;;;;;;;;;;;;;-146.64;53.66;38842.53;4977438;28;20044;-81
2022/04/17 08:04:48;;;;;;;8.57;5.13;;;;;;;-146.64;53.57;38762.72;5000061;28;19980;-81
2022/04/17 08:07:14;;;;;;;;;;;;;;;-146.64;52.60;38850.72;4998608;28;20041;-81
2022/04/17 08:09:39;;;;;;;7.03;4.85;;;;;;;-146.64;54.55;38732.03;5017137;28;19944;-80
2022/04/17 08:12:04;;;;;;;7.00;4.93;;;;;;;-146.64;54.75;38805.69;4993756;28;20277;-80
2022/04/17 08:14:30;;;;;;;6.63;5.20;;;;;;;-146.64;51.87;38826.16;5009199;28;20030;-81
2022/04/17 08:16:55;;;;;;;6.03;5.30;;;;;;;-146.64;52.51;38817.97;5011522;28;20493;-81
2022/04/17 08:19:22;;;;;;;8.00;4.90;;;;;;;-146.64;52.35;38815.94;5014713;28;20061;-81
2022/04/17 08:21:47;;;;;;;6.80;5.20;;;;;;;-146.64;51.81;38830.25;5015357;28;20049;-81
2022/04/17 08:24:12;;;;;;;6.30;4.67;;;;;;;-146.64;50.66;38817.97;5012488;28;20465;-81
2022/04/17 08:26:37;;;;;;;8.97;6.10;;;;;;;-146.64;50.25;38809.78;5003843;28;20033;-81
2022/04/17 08:29:03;;;;;;;5.10;4.60;;;;;;;-146.64;52.29;38758.63;4993348;28;20328;-81
2022/04/17 08:31:28;;;;;;;7.87;5.23;;;;;;;-146.64;48.53;38764.78;5015859;28;20030;-81
2022/04/17 08:33:53;;;;;;;7.68;4.95;;;;;;;-146.64;50.41;38732.03;4996725;28;20143;-81
2022/04/17 08:36:19;;;;;;;7.43;5.43;;;;;;;-146.64;50.90;38768.88;4997474;28;20506;-82
2022/04/17 08:38:44;;;;;;;6.63;5.13;;;;;;;-146.64;50.19;38809.78;5020299;28;20030;-82
2022/04/17 08:41:11;;;;;;;9.07;5.40;;;;;;;-146.64;49.06;38779.09;4994931;28;20029;-81
2022/04/17 08:43:37;;;;;;;6.80;4.68;;;;;;;-146.64;48.90;38760.69;5015236;28;20030;-81
2022/04/17 08:46:03;;;;;;;9.50;5.13;;;;;;;-146.64;49.64;38723.84;5005370;28;20071;-80
2022/04/17 08:48:28;;;;;;;7.43;5.00;;;;;;;-146.64;48.99;38707.47;5001658;28;20026;-80
2022/04/17 08:50:54;;;;;;;8.10;5.30;;;;;;;-146.64;48.26;38709.53;4995415;28;20346;-81
2022/04/17 08:53:20;;;;;;;7.20;4.63;;;;;;;-146.64;48.60;38691.13;5014260;28;20053;-81
2022/04/17 08:55:45;;;;;;;8.73;4.55;;;;;;;-146.64;48.96;38627.69;5016537;28;20467;-81
2022/04/17 08:58:11;;;;;;;7.77;5.00;;;;;;;-146.64;47.88;38637.91;5000389;28;20042;-81
2022/04/17 09:00:37;;;;;;;9.93;4.97;;;;;;;-146.64;47.16;38699.28;5001216;28;20481;-82
2022/04/17 09:03:02;;;;;;;7.70;4.50;;;;;;;-146.64;46.15;38674.75;5024901;28;20037;-80
2022/04/17 09:05:32;;;;;;;5.20;4.40;;;;;;;-146.64;46.53;38666.56;5001717;28;20049;-81
2022/04/17 09:08:11;;;;;;;6.80;4.93;;;;;;;-146.64;46.63;38650.19;5004766;28;20037;-81
2022/04/17 09:10:36;;;;;;;7.53;4.60;;;;;;;-146.64;45.89;38609.25;5019326;28;20427;-81
2022/04/17 09:13:03;;;;;;;5.57;4.30;;;;;;;-146.64;45.16;38588.81;5017900;28;20029;-81
2022/04/17 09:15:37;;;;;;;5.32;4.38;;;;;;;-146.64;44.37;38531.50;5002219;28;20033;-81
2022/04/17 09:18:07;;;;;;;6.45;4.43;;;;;;;-146.64;43.87;38551.97;5005288;28;20072;-81
2022/04/17 09:20:33;;;;;;;6.15;4.32;;;;;;;-146.64;42.73;38576.53;4987891;28;20042;-81
2022/04/17 09:22:59;;;;;;;5.53;4.27;;;;;;;-146.64;42.03;38521.28;5012476;28;20030;-81
2022/04/17 09:25:28;;;;;;;5.70;4.15;;;;;;;-146.64;43.10;38515.13;5021909;28;20091;-81
2022/04/17 09:27:58;;;;;;;5.57;4.32;;;;;;;-146.64;41.63;38498.75;5004440;28;20080;-80
2022/04/17 09:30:25;;;;;;;6.32;3.95;;;;;;;-146.64;41.16;38531.50;4994018;28;20066;-81
2022/04/17 09:32:52;;;;;;;7.55;4.13;;;;;;;-146.64;42.01;38486.50;5013309;28;20069;-80
2022/04/17 09:35:21;;;;;;;5.72;4.22;;;;;;;-146.64;40.94;38472.16;4994810;28;20125;-80
2022/04/17 09:37:47;;;;;;;6.15;4.32;;;;;;;-146.64;41.29;38470.13;5011497;28;20038;-80
2022/04/17 09:40:12;;;;;;;6.73;4.63;;;;;;;-146.64;40.68;38455.78;5009789;28;20396;-80
2022/04/17 09:42:37;;;;;;;5.10;4.17;;;;;;;-146.64;40.41;38425.09;4978014;28;20029;-80
2022/04/17 09:45:06;;;;;;;4.40;4.00;;;;;;;-146.64;40.14;38414.88;5000530;28;20495;-81
2022/04/17 09:47:32;;;;;;;6.80;4.32;;;;;;;-146.64;39.71;38380.09;5003600;28;20166;-81
2022/04/17 09:49:57;;;;;;;5.97;4.37;;;;;;;-146.64;39.90;38339.16;5011475;28;20433;-80
2022/04/17 09:52:27;;;;;;;4.70;4.30;;;;;;;-146.64;39.76;38404.66;5017165;28;20056;-80
2022/04/17 09:54:53;;;;;;;7.03;4.28;;;;;;;-146.64;38.79;38429.19;5020750;28;20594;-81
2022/04/17 09:57:35;;;;;;;5.60;4.20;;;;;;;-146.64;39.51;38380.09;5007064;28;20057;-80
2022/04/17 10:00:15;;;;;;;7.57;4.20;;;;;;;-146.64;38.77;38306.44;5005896;28;20034;-81
2022/04/17 10:02:43;;;;;;;6.63;4.35;;;;;;;-146.64;39.43;38355.53;5011345;28;20054;-81
2022/04/17 10:05:13;;;;;;;4.85;4.18;;;;;;;-146.64;38.96;38310.53;4992962;28;20474;-82
2022/04/17 10:07:41;;;;;;;5.30;4.38;;;;;;;-146.64;38.91;38265.50;5000193;28;20071;-80
2022/04/17 10:10:07;;;;;;;5.75;4.28;;;;;;;-146.64;39.40;38204.13;5005723;28;20409;-81
2022/04/17 10:12:34;;;;;;;4.78;4.28;;;;;;;-146.64;38.80;38163.22;4992062;28;20062;-80
2022/04/17 10:15:04;;;;;;;7.18;5.03;;;;;;;-146.64;37.45;38253.22;5013888;28;20029;-81
2022/04/17 10:17:32;;;;;;;7.45;4.25;;;;;;;-146.64;37.82;38157.06;5009945;28;20744;-81
2022/04/17 10:20:06;;;;;;;7.15;4.78;;;;;;;-146.64;38.48;38173.44;4992336;28;20041;-81
2022/04/17 10:22:33;;;;;;;8.40;5.03;;;;;;;-146.64;37.54;38226.63;5007575;28;20052;-81
2022/04/17 10:24:58;;;;;;;6.72;4.28;;;;;;;-146.64;37.62;38167.31;5005893;28;20033;-81
2022/04/17 10:27:26;;;;;;;5.33;4.27;;;;;;;-146.64;36.98;38183.66;4999474;28;20041;-81
2022/04/17 10:30:04;;;;;;;5.30;4.65;;;;;;;-146.64;37.67;38220.50;4981146;28;20032;-80
2022/04/17 10:32:32;;;;;;;6.68;3.70;;;;;;;-146.64;36.97;38142.75;5001726;28;20030;-81
2022/04/17 10:35:27;;;;;;;5.10;4.18;;;;;;;-146.64;36.56;38101.81;5008972;28;20408;-81
2022/04/17 10:38:15;;;;;;;6.45;4.60;;;;;;;-146.64;36.45;38085.47;4998544;28;20079;-81
2022/04/17 10:40:52;;;;;;;5.53;4.32;;;;;;;-146.64;36.60;38124.34;5024350;28;20040;-80
2022/04/17 10:43:18;;;;;;;7.57;4.57;;;;;;;-146.64;36.08;38093.66;4991666;28;20025;-80
2022/04/17 10:46:06;;;;;;;4.33;3.93;;;;;;;-146.64;36.06;38099.78;4993291;28;20045;-81
2022/04/17 10:48:31;;;;;;;5.72;5.13;;;;;;;-146.64;36.14;38173.44;5009685;28;20059;-80
2022/04/17 10:50:56;;;;;;;9.67;4.70;;;;;;;-146.64;36.49;38054.78;4997152;28;20046;-80
2022/04/17 10:53:26;;;;;;;5.27;4.40;;;;;;;-146.64;35.11;38009.75;5008869;28;20042;-80
2022/04/17 10:56:04;;;;;;;5.10;4.30;;;;;;;-146.64;34.80;38020.00;5006882;28;20025;-80
2022/04/17 10:58:55;;;;;;;10.68;4.72;;;;;;;-146.64;35.28;38069.09;5015666;28;20021;-80
2022/04/17 11:01:43;;;;;;;5.18;4.68;;;;;;;-146.64;35.22;38054.78;5014951;28;20033;-80
2022/04/17 11:04:15;;;;;;;7.50;5.13;;;;;;;-146.64;35.00;37991.34;5026238;28;20036;-80
2022/04/17 11:06:42;;;;;;;7.35;4.93;;;;;;;-146.64;35.25;38015.91;4999651;28;20139;-80
2022/04/17 11:09:21;;;;;;;5.72;4.72;;;;;;;-146.64;35.73;38007.72;4991359;28;20042;-80
2022/04/17 11:11:47;;;;;;;6.68;4.63;;;;;;;-146.64;34.30;37962.72;5013206;28;20049;-80
2022/04/17 11:14:19;;;;;;;5.63;5.10;;;;;;;-146.64;34.92;38003.63;5013417;28;20405;-81
2022/04/17 11:16:57;;;;;;;4.70;3.85;;;;;;;-146.64;35.01;37950.44;4982789;28;20065;-79
2022/04/17 11:19:26;;;;;;;;;;;;;;;-146.64;35.77;37979.06;4978763;28;20022;-80
2022/04/17 11:21:53;;;;;;;6.70;4.57;;;;;;;-146.64;35.50;37860.41;4997422;28;19917;-78
2022/04/17 11:24:20;;;;;;;7.28;4.70;;;;;;;-146.64;34.86;37864.50;4997962;28;20477;-81
2022/04/17 11:26:55;;;;;;;6.20;4.90;;;;;;;-146.64;34.80;37807.22;4982049;28;20124;-78